createdAt,value
2018-10-05T00:00:50.793Z,10.53
2018-10-05T00:02:43.789Z,10.46
2018-10-05T00:03:43.843Z,10.48
2018-10-05T00:05:36.825Z,10.49
2018-10-05T00:06:36.884Z,10.48
2018-10-05T00:08:29.875Z,10.42
2018-10-05T00:09:29.924Z,10.49
2018-10-05T00:11:22.915Z,10.54
2018-10-05T00:12:22.965Z,10.60
2018-10-05T00:14:15.962Z,10.56
2018-10-05T00:15:16.015Z,10.49
2018-10-05T00:17:09.013Z,10.41
2018-10-05T00:18:09.064Z,10.53
2018-10-05T00:20:02.045Z,10.35
2018-10-05T00:21:02.105Z,10.40
2018-10-05T00:22:55.096Z,10.41
2018-10-05T00:23:55.146Z,10.33
2018-10-05T00:25:48.127Z,10.46
2018-10-05T00:26:48.187Z,10.37
2018-10-05T00:28:41.187Z,10.44
2018-10-05T00:29:41.239Z,10.37
2018-10-05T00:31:34.220Z,10.44
2018-10-05T00:32:34.338Z,10.41
2018-10-05T00:34:27.271Z,10.51
2018-10-05T00:35:27.319Z,10.56
2018-10-05T00:37:20.320Z,10.37
2018-10-05T00:38:20.372Z,10.48
2018-10-05T00:40:13.365Z,10.46
2018-10-05T00:41:13.423Z,10.28
2018-10-05T00:43:06.414Z,10.23
2018-10-05T00:44:06.461Z,10.22
2018-10-05T00:45:59.444Z,10.17
2018-10-05T00:46:59.501Z,10.16
2018-10-05T00:48:52.493Z,10.15
2018-10-05T00:49:52.543Z,10.15
2018-10-05T00:51:45.523Z,10.09
2018-10-05T00:52:45.582Z,10.16
2018-10-05T00:54:38.575Z,10.09
2018-10-05T00:55:38.623Z,9.95
2018-10-05T00:57:31.615Z,9.95
2018-10-05T00:58:31.667Z,10.01
2018-10-05T01:00:24.651Z,10.04
2018-10-05T01:01:24.709Z,9.94
2018-10-05T01:03:17.703Z,9.99
2018-10-05T01:04:17.749Z,9.97
2018-10-05T01:06:10.731Z,9.98
2018-10-05T01:07:10.794Z,9.83
2018-10-05T01:09:03.784Z,9.84
2018-10-05T01:10:03.831Z,9.83
2018-10-05T01:11:56.813Z,9.80
2018-10-05T01:12:56.876Z,9.84
2018-10-05T01:14:49.863Z,9.87
2018-10-05T01:15:49.912Z,9.91
2018-10-05T01:17:42.909Z,9.84
2018-10-05T01:18:42.963Z,9.89
2018-10-05T01:20:35.954Z,9.89
2018-10-05T01:21:36.007Z,9.79
2018-10-05T01:23:28.999Z,9.79
2018-10-05T01:24:29.052Z,9.74
2018-10-05T01:26:22.042Z,9.68
2018-10-05T01:27:22.096Z,9.72
2018-10-05T01:29:15.089Z,9.72
2018-10-05T01:30:15.140Z,9.64
2018-10-05T01:32:08.118Z,9.69
2018-10-05T01:33:08.177Z,9.68
2018-10-05T01:35:01.167Z,9.65
2018-10-05T01:36:01.220Z,9.73
2018-10-05T01:38:15.222Z,9.66
2018-10-05T01:38:54.315Z,9.66
2018-10-05T01:40:47.245Z,9.74
2018-10-05T01:41:47.301Z,9.74
2018-10-05T01:43:40.292Z,9.86
2018-10-05T01:44:40.340Z,9.82
2018-10-05T01:46:33.319Z,9.84
2018-10-05T01:47:33.376Z,9.66
2018-10-05T01:49:26.368Z,9.62
2018-10-05T01:50:26.417Z,9.59
2018-10-05T01:52:19.396Z,9.64
2018-10-05T01:53:19.455Z,9.68
2018-10-05T01:55:12.448Z,9.61
2018-10-05T01:56:12.497Z,9.61
2018-10-05T01:58:05.490Z,9.74
2018-10-05T01:59:05.539Z,9.65
2018-10-05T02:00:58.525Z,9.62
2018-10-05T02:01:58.583Z,9.61
2018-10-05T02:03:51.579Z,9.56
2018-10-05T02:04:51.627Z,9.47
2018-10-05T02:06:44.608Z,9.56
2018-10-05T02:07:44.665Z,9.55
2018-10-05T02:09:37.657Z,9.48
2018-10-05T02:10:37.704Z,9.44
2018-10-05T02:12:30.684Z,9.43
2018-10-05T02:13:30.743Z,9.50
2018-10-05T02:15:23.735Z,9.36
2018-10-05T02:16:23.784Z,9.46
2018-10-05T02:18:16.817Z,9.40
2018-10-05T02:19:16.827Z,9.40
2018-10-05T02:21:09.809Z,9.31
2018-10-05T02:22:09.860Z,9.34
2018-10-05T02:24:02.852Z,9.41
2018-10-05T02:25:02.910Z,9.37
2018-10-05T02:26:55.880Z,9.34
2018-10-05T02:27:55.939Z,9.29
2018-10-05T02:29:48.938Z,9.25
2018-10-05T02:30:48.990Z,9.28
2018-10-05T02:32:41.988Z,9.19
2018-10-05T02:33:42.032Z,9.21
2018-10-05T02:35:35.028Z,9.26
2018-10-05T02:36:35.083Z,9.21
2018-10-05T02:38:28.073Z,9.23
2018-10-05T02:39:28.126Z,9.18
2018-10-05T02:41:21.113Z,9.22
2018-10-05T02:42:21.169Z,9.22
2018-10-05T02:44:14.161Z,9.21
2018-10-05T02:45:14.214Z,9.18
2018-10-05T02:47:07.195Z,9.25
2018-10-05T02:48:07.253Z,9.21
2018-10-05T02:50:00.239Z,9.23
2018-10-05T02:51:00.292Z,9.21
2018-10-05T02:52:53.291Z,9.21
2018-10-05T02:53:53.341Z,9.04
2018-10-05T02:55:46.330Z,9.16
2018-10-05T02:56:46.381Z,9.02
2018-10-05T02:58:39.373Z,9.10
2018-10-05T02:59:39.421Z,9.06
2018-10-05T03:01:32.399Z,9.10
2018-10-05T03:02:32.457Z,9.06
2018-10-05T03:04:25.961Z,9.04
2018-10-05T03:05:26.011Z,8.97
2018-10-05T03:07:19.002Z,8.97
2018-10-05T03:08:19.059Z,9.06
2018-10-05T03:10:12.055Z,9.02
2018-10-05T03:11:12.111Z,8.85
2018-10-05T03:13:05.089Z,8.85
2018-10-05T03:14:05.146Z,8.92
2018-10-05T03:15:58.144Z,8.91
2018-10-05T03:16:58.193Z,8.89
2018-10-05T03:18:51.185Z,8.88
2018-10-05T03:19:51.317Z,8.87
2018-10-05T03:21:44.220Z,8.87
2018-10-05T03:22:44.275Z,8.92
2018-10-05T03:24:37.272Z,8.85
2018-10-05T03:25:37.321Z,8.78
2018-10-05T03:27:30.306Z,8.76
2018-10-05T03:28:30.365Z,8.82
2018-10-05T03:30:23.350Z,8.81
2018-10-05T03:31:23.410Z,8.82
2018-10-05T03:33:16.400Z,8.81
2018-10-05T03:34:16.449Z,8.79
2018-10-05T03:36:09.440Z,8.84
2018-10-05T03:37:09.492Z,8.79
2018-10-05T03:39:02.477Z,8.79
2018-10-05T03:40:02.529Z,8.70
2018-10-05T03:41:55.509Z,8.78
2018-10-05T03:42:55.568Z,8.78
2018-10-05T03:44:48.557Z,8.81
2018-10-05T03:45:48.604Z,8.74
2018-10-05T03:47:41.588Z,8.74
2018-10-05T03:48:41.937Z,8.70
2018-10-05T03:50:34.638Z,8.63
2018-10-05T03:51:34.685Z,8.67
2018-10-05T03:53:27.667Z,8.69
2018-10-05T03:54:27.727Z,8.55
2018-10-05T03:56:20.716Z,8.63
2018-10-05T03:57:20.768Z,8.60
2018-10-05T03:59:14.266Z,8.61
2018-10-05T04:00:14.343Z,8.55
2018-10-05T04:02:07.294Z,8.55
2018-10-05T04:03:07.352Z,8.55
2018-10-05T04:05:00.344Z,8.51
2018-10-05T04:06:00.395Z,8.52
2018-10-05T04:07:53.389Z,8.53
2018-10-05T04:08:53.444Z,8.51
2018-10-05T04:10:46.436Z,8.51
2018-10-05T04:11:46.486Z,8.52
2018-10-05T04:13:39.466Z,8.53
2018-10-05T04:14:39.526Z,8.41
2018-10-05T04:16:32.519Z,8.44
2018-10-05T04:17:32.570Z,8.45
2018-10-05T04:19:25.556Z,8.52
2018-10-05T04:20:25.605Z,8.49
2018-10-05T04:22:18.588Z,8.51
2018-10-05T04:23:18.646Z,8.44
2018-10-05T04:25:11.637Z,8.49
2018-10-05T04:26:11.687Z,8.52
2018-10-05T04:28:04.670Z,8.45
2018-10-05T04:29:04.727Z,8.41
2018-10-05T04:30:57.719Z,8.37
2018-10-05T04:31:57.768Z,8.38
2018-10-05T04:33:50.751Z,8.37
2018-10-05T04:34:50.813Z,8.44
2018-10-05T04:36:43.801Z,8.37
2018-10-05T04:37:43.855Z,8.28
2018-10-05T04:39:36.840Z,8.41
2018-10-05T04:40:36.890Z,8.45
2018-10-05T04:42:29.878Z,8.26
2018-10-05T04:43:29.935Z,8.31
2018-10-05T04:45:22.932Z,8.30
2018-10-05T04:46:22.979Z,8.31
2018-10-05T04:48:15.961Z,8.31
2018-10-05T04:49:16.020Z,8.37
2018-10-05T04:51:09.013Z,8.37
2018-10-05T04:52:09.062Z,8.36
2018-10-05T04:54:02.052Z,8.36
2018-10-05T04:55:02.108Z,8.31
2018-10-05T04:56:55.175Z,8.28
2018-10-05T04:57:55.143Z,8.31
2018-10-05T04:59:48.131Z,8.27
2018-10-05T05:00:48.179Z,8.31
2018-10-05T05:02:41.170Z,8.27
2018-10-05T05:03:41.228Z,8.31
2018-10-05T05:05:34.211Z,8.33
2018-10-05T05:06:34.259Z,8.33
2018-10-05T05:08:27.247Z,8.20
2018-10-05T05:09:27.301Z,8.26
2018-10-05T05:11:20.290Z,8.31
2018-10-05T05:12:20.342Z,8.28
2018-10-05T05:14:13.322Z,8.23
2018-10-05T05:15:13.377Z,8.33
2018-10-05T05:17:06.371Z,8.31
2018-10-05T05:18:06.420Z,8.26
2018-10-05T05:19:59.413Z,8.16
2018-10-05T05:20:59.466Z,8.18
2018-10-05T05:22:52.448Z,8.19
2018-10-05T05:23:52.503Z,8.13
2018-10-05T05:25:45.535Z,8.12
2018-10-05T05:26:45.544Z,8.26
2018-10-05T05:28:38.525Z,8.23
2018-10-05T05:29:38.585Z,8.18
2018-10-05T05:31:31.610Z,8.23
2018-10-05T05:32:31.627Z,8.16
2018-10-05T05:34:24.605Z,8.19
2018-10-05T05:35:24.664Z,8.13
2018-10-05T05:37:17.652Z,8.20
2018-10-05T05:38:17.701Z,8.23
2018-10-05T05:40:10.725Z,8.15
2018-10-05T05:41:10.748Z,8.09
2018-10-05T05:43:03.738Z,8.15
2018-10-05T05:44:03.796Z,8.06
2018-10-05T05:45:56.785Z,8.15
2018-10-05T05:46:56.925Z,8.18
2018-10-05T05:48:49.819Z,8.13
2018-10-05T05:49:49.879Z,8.19
2018-10-05T05:51:42.859Z,8.19
2018-10-05T05:52:42.917Z,8.13
2018-10-05T05:54:35.957Z,8.24
2018-10-05T05:55:35.954Z,8.27
2018-10-05T05:57:28.952Z,8.23
2018-10-05T05:58:29.003Z,8.26
2018-10-05T06:00:21.994Z,8.31
2018-10-05T06:01:22.043Z,8.23
2018-10-05T06:03:15.034Z,8.31
2018-10-05T06:04:15.090Z,8.33
2018-10-05T06:06:08.082Z,8.34
2018-10-05T06:07:08.131Z,8.34
2018-10-05T06:09:01.118Z,8.31
2018-10-05T06:10:01.175Z,8.34
2018-10-05T06:11:54.165Z,8.33
2018-10-05T06:12:54.213Z,8.38
2018-10-05T06:14:47.196Z,8.41
2018-10-05T06:15:47.253Z,8.34
2018-10-05T06:17:40.250Z,8.42
2018-10-05T06:18:40.301Z,8.46
2018-10-05T06:20:33.292Z,8.48
2018-10-05T06:21:33.387Z,8.49
2018-10-05T06:23:26.326Z,8.58
2018-10-05T06:24:26.382Z,8.60
2018-10-05T06:26:19.374Z,8.60
2018-10-05T06:27:19.495Z,8.58
2018-10-05T06:29:12.412Z,8.67
2018-10-05T06:30:12.471Z,8.71
2018-10-05T06:32:05.466Z,8.84
2018-10-05T06:33:05.535Z,8.88
2018-10-05T06:34:58.499Z,9.02
2018-10-05T06:35:58.555Z,9.08
2018-10-05T06:37:51.552Z,9.21
2018-10-05T06:38:51.602Z,9.18
2018-10-05T06:40:44.630Z,9.37
2018-10-05T06:41:44.660Z,9.37
2018-10-05T06:43:37.630Z,9.65
2018-10-05T06:44:37.681Z,9.66
2018-10-05T06:46:30.692Z,9.76
2018-10-05T06:47:30.735Z,9.91
2018-10-05T06:49:23.719Z,9.95
2018-10-05T06:50:23.776Z,10.13
2018-10-05T06:52:16.765Z,10.41
2018-10-05T06:53:16.885Z,10.56
2018-10-05T06:55:09.798Z,10.89
2018-10-05T06:56:09.859Z,11.08
2018-10-05T06:58:02.848Z,12.02
2018-10-05T06:59:02.896Z,12.60
2018-10-05T07:00:55.889Z,13.99
2018-10-05T07:01:56.026Z,14.73
2018-10-05T07:03:48.919Z,15.72
2018-10-05T07:04:48.980Z,15.83
2018-10-05T07:06:41.964Z,14.88
2018-10-05T07:07:42.037Z,14.29
2018-10-05T07:09:35.002Z,13.20
2018-10-05T07:10:35.060Z,12.83
2018-10-05T07:12:28.059Z,12.91
2018-10-05T07:13:28.111Z,13.47
2018-10-05T07:15:21.097Z,15.84
2018-10-05T07:16:21.159Z,16.90
2018-10-05T07:18:14.150Z,18.28
2018-10-05T07:19:14.200Z,18.98
2018-10-05T07:21:07.251Z,20.00
2018-10-05T07:22:07.249Z,20.29
2018-10-05T07:24:00.242Z,20.97
2018-10-05T07:25:00.302Z,21.25
2018-10-05T07:26:53.297Z,21.29
2018-10-05T07:27:53.355Z,20.77
2018-10-05T07:29:46.344Z,20.11
2018-10-05T07:30:46.401Z,20.09
2018-10-05T07:32:39.400Z,20.55
2018-10-05T07:33:39.453Z,20.70
2018-10-05T07:35:32.435Z,20.78
2018-10-05T07:36:32.503Z,21.21
2018-10-05T07:38:25.511Z,21.61
2018-10-05T07:39:25.567Z,21.80
2018-10-05T07:41:18.578Z,22.00
2018-10-05T07:42:18.634Z,22.18
2018-10-05T07:44:11.636Z,22.23
2018-10-05T07:45:11.697Z,22.06
2018-10-05T07:47:04.698Z,21.80
2018-10-05T07:48:04.752Z,21.14
2018-10-05T07:49:57.753Z,21.25
2018-10-05T07:50:57.816Z,20.96
2018-10-05T07:52:50.817Z,21.02
2018-10-05T07:53:50.872Z,20.96
2018-10-05T07:55:43.873Z,21.52
2018-10-05T07:56:43.937Z,22.11
2018-10-05T07:58:37.451Z,22.00
2018-10-05T07:59:37.509Z,21.80
2018-10-05T08:01:30.510Z,22.60
2018-10-05T08:02:30.565Z,22.47
2018-10-05T08:04:23.567Z,22.88
2018-10-05T08:05:23.632Z,22.91
2018-10-05T08:07:16.641Z,22.94
2018-10-05T08:08:16.729Z,22.80
2018-10-05T08:10:09.692Z,22.76
2018-10-05T08:11:09.760Z,22.93
2018-10-05T08:13:02.767Z,23.00
2018-10-05T08:14:02.823Z,23.61
2018-10-05T08:15:55.820Z,24.13
2018-10-05T08:16:55.884Z,24.06
2018-10-05T08:18:48.889Z,23.84
2018-10-05T08:19:48.952Z,23.73
2018-10-05T08:21:42.070Z,23.93
2018-10-05T08:22:42.020Z,23.93
2018-10-05T08:24:35.026Z,23.84
2018-10-05T08:25:35.096Z,23.31
2018-10-05T08:27:28.099Z,22.57
2018-10-05T08:28:28.162Z,22.66
2018-10-05T08:30:21.162Z,22.44
2018-10-05T08:31:21.228Z,22.94
2018-10-05T08:33:14.235Z,23.28
2018-10-05T08:34:14.376Z,23.32
2018-10-05T08:36:07.296Z,23.93
2018-10-05T08:37:07.364Z,23.77
2018-10-05T08:39:00.366Z,23.88
2018-10-05T08:40:00.537Z,23.69
2018-10-05T08:41:53.451Z,23.15
2018-10-05T08:42:53.501Z,22.08
2018-10-05T08:44:46.502Z,20.50
2018-10-05T08:45:46.589Z,19.92
2018-10-05T08:47:39.568Z,18.63
2018-10-05T08:48:39.628Z,18.49
2018-10-05T08:50:32.657Z,18.37
2018-10-05T08:51:32.720Z,18.29
2018-10-05T08:53:25.697Z,18.13
2018-10-05T08:54:25.761Z,17.97
2018-10-05T08:56:18.755Z,17.85
2018-10-05T08:57:18.817Z,17.79
2018-10-05T08:59:12.325Z,17.49
2018-10-05T09:00:12.525Z,17.68
2018-10-05T09:02:05.389Z,17.65
2018-10-05T09:03:05.441Z,17.85
2018-10-05T09:04:58.449Z,17.95
2018-10-05T09:05:58.507Z,18.15
2018-10-05T09:07:51.510Z,17.86
2018-10-05T09:08:51.566Z,17.83
2018-10-05T09:10:44.568Z,17.89
2018-10-05T09:11:44.624Z,17.97
2018-10-05T09:13:37.635Z,18.15
2018-10-05T09:14:37.693Z,18.00
2018-10-05T09:16:30.682Z,17.95
2018-10-05T09:17:30.749Z,17.90
2018-10-05T09:19:23.740Z,18.04
2018-10-05T09:20:23.800Z,18.01
2018-10-05T09:22:16.798Z,18.16
2018-10-05T09:23:16.861Z,18.05
2018-10-05T09:25:09.862Z,17.98
2018-10-05T09:26:09.919Z,18.07
2018-10-05T09:28:02.919Z,18.19
2018-10-05T09:29:02.977Z,18.31
2018-10-05T09:30:55.975Z,18.35
2018-10-05T09:31:56.033Z,18.43
2018-10-05T09:33:49.044Z,18.35
2018-10-05T09:34:49.095Z,18.35
2018-10-05T09:36:42.084Z,18.35
2018-10-05T09:37:42.261Z,18.35
2018-10-05T09:39:35.148Z,18.49
2018-10-05T09:40:35.201Z,18.52
2018-10-05T09:42:28.191Z,18.60
2018-10-05T09:43:28.252Z,18.63
2018-10-05T09:45:21.319Z,18.66
2018-10-05T09:46:21.310Z,18.71
2018-10-05T09:48:14.344Z,18.68
2018-10-05T09:49:14.360Z,18.56
2018-10-05T09:51:07.353Z,18.50
2018-10-05T09:52:07.473Z,18.60
2018-10-05T09:54:00.411Z,18.78
2018-10-05T09:55:00.463Z,18.88
2018-10-05T09:56:53.453Z,18.96
2018-10-05T09:57:53.520Z,19.09
2018-10-05T09:59:47.146Z,19.07
2018-10-05T10:00:47.083Z,19.11
2018-10-05T10:02:40.073Z,19.19
2018-10-05T10:03:40.135Z,19.11
2018-10-05T10:05:33.132Z,19.27
2018-10-05T10:06:33.185Z,19.16
2018-10-05T10:08:26.196Z,19.48
2018-10-05T10:09:26.242Z,19.41
2018-10-05T10:11:19.235Z,19.49
2018-10-05T10:12:19.299Z,19.64
2018-10-05T10:14:12.302Z,19.64
2018-10-05T10:15:12.355Z,19.69
2018-10-05T10:17:05.353Z,19.82
2018-10-05T10:18:05.413Z,19.96
2018-10-05T10:19:58.413Z,19.88
2018-10-05T10:20:58.469Z,19.67
2018-10-05T10:22:51.468Z,19.89
2018-10-05T10:23:51.530Z,19.88
2018-10-05T10:25:44.533Z,19.95
2018-10-05T10:26:44.589Z,20.04
2018-10-05T10:28:37.689Z,20.04
2018-10-05T10:29:37.648Z,19.84
2018-10-05T10:31:30.661Z,19.82
2018-10-05T10:32:30.723Z,19.73
2018-10-05T10:34:23.732Z,19.73
2018-10-05T10:35:23.781Z,19.95
2018-10-05T10:37:16.774Z,20.00
2018-10-05T10:38:16.838Z,20.07
2018-10-05T10:40:09.860Z,20.21
2018-10-05T10:41:09.917Z,20.24
2018-10-05T10:43:02.904Z,20.31
2018-10-05T10:44:02.969Z,20.26
2018-10-05T10:45:55.974Z,20.28
2018-10-05T10:46:56.031Z,20.25
2018-10-05T10:48:49.028Z,20.34
2018-10-05T10:49:49.084Z,20.43
2018-10-05T10:51:42.081Z,20.59
2018-10-05T10:52:42.142Z,20.59
2018-10-05T10:54:35.144Z,20.66
2018-10-05T10:55:35.199Z,20.63
2018-10-05T10:57:28.200Z,20.63
2018-10-05T10:58:28.259Z,20.74
2018-10-05T11:00:21.256Z,20.72
2018-10-05T11:01:21.313Z,20.95
2018-10-05T11:03:14.334Z,21.00
2018-10-05T11:04:14.453Z,20.85
2018-10-05T11:06:07.374Z,20.92
2018-10-05T11:07:07.432Z,21.00
2018-10-05T11:09:00.428Z,20.97
2018-10-05T11:10:00.485Z,21.15
2018-10-05T11:11:53.492Z,21.12
2018-10-05T11:12:53.560Z,21.03
2018-10-05T11:14:46.556Z,21.21
2018-10-05T11:15:46.666Z,21.27
2018-10-05T11:17:39.606Z,21.36
2018-10-05T11:18:39.669Z,21.43
2018-10-05T11:20:32.670Z,21.50
2018-10-05T11:21:32.729Z,21.60
2018-10-05T11:23:25.810Z,21.60
2018-10-05T11:24:25.786Z,21.67
2018-10-05T11:26:18.790Z,21.55
2018-10-05T11:27:18.847Z,21.55
2018-10-05T11:29:11.851Z,21.50
2018-10-05T11:30:11.905Z,21.50
2018-10-05T11:32:05.410Z,21.57
2018-10-05T11:33:05.470Z,21.55
2018-10-05T11:34:58.499Z,21.66
2018-10-05T11:35:58.529Z,21.62
2018-10-05T11:37:51.525Z,21.69
2018-10-05T11:38:51.592Z,21.58
2018-10-05T11:40:44.634Z,21.66
2018-10-05T11:41:44.649Z,21.72
2018-10-05T11:43:37.638Z,21.67
2018-10-05T11:44:37.705Z,21.73
2018-10-05T11:46:30.919Z,21.64
2018-10-05T11:47:30.803Z,21.69
2018-10-05T11:49:23.803Z,21.77
2018-10-05T11:50:23.862Z,21.79
2018-10-05T11:52:16.876Z,21.73
2018-10-05T11:53:16.917Z,21.96
2018-10-05T11:55:09.927Z,21.82
2018-10-05T11:56:09.975Z,21.83
2018-10-05T11:58:02.967Z,21.76
2018-10-05T11:59:03.029Z,21.73
2018-10-05T12:00:56.029Z,21.95
2018-10-05T12:01:56.086Z,21.99
2018-10-05T12:03:49.102Z,21.93
2018-10-05T12:04:49.164Z,21.93
2018-10-05T12:06:42.168Z,22.11
2018-10-05T12:07:42.217Z,22.04
2018-10-05T12:09:35.225Z,22.25
2018-10-05T12:10:35.287Z,22.22
2018-10-05T12:12:28.275Z,22.29
2018-10-05T12:13:28.391Z,22.33
2018-10-05T12:15:21.849Z,22.17
2018-10-05T12:16:21.902Z,22.08
2018-10-05T12:18:14.902Z,22.06
2018-10-05T12:19:15.225Z,21.96
2018-10-05T12:21:07.962Z,22.04
2018-10-05T12:22:08.019Z,22.07
2018-10-05T12:24:01.056Z,22.15
2018-10-05T12:25:01.073Z,22.15
2018-10-05T12:26:54.072Z,22.25
2018-10-05T12:27:54.125Z,22.30
2018-10-05T12:29:47.131Z,22.44
2018-10-05T12:30:47.188Z,22.44
2018-10-05T12:32:40.180Z,22.43
2018-10-05T12:33:40.242Z,22.45
2018-10-05T12:35:33.241Z,22.41
2018-10-05T12:36:33.297Z,22.47
2018-10-05T12:38:26.290Z,22.43
2018-10-05T12:39:26.355Z,22.41
2018-10-05T12:41:19.352Z,22.50
2018-10-05T12:42:19.409Z,22.50
2018-10-05T12:44:12.402Z,22.44
2018-10-05T12:45:12.470Z,22.47
2018-10-05T12:47:05.470Z,22.50
2018-10-05T12:48:05.528Z,22.47
2018-10-05T12:49:58.608Z,22.55
2018-10-05T12:50:58.583Z,22.36
2018-10-05T12:52:52.085Z,22.44
2018-10-05T12:53:52.143Z,22.53
2018-10-05T12:55:45.155Z,22.45
2018-10-05T12:56:45.212Z,22.43
2018-10-05T12:58:38.715Z,22.59
2018-10-05T12:59:38.778Z,22.59
2018-10-05T13:01:31.777Z,22.57
2018-10-05T13:02:31.833Z,22.59
2018-10-05T13:04:24.826Z,22.59
2018-10-05T13:05:24.891Z,22.60
2018-10-05T13:07:17.889Z,22.51
2018-10-05T13:08:17.949Z,22.65
2018-10-05T13:10:10.946Z,22.55
2018-10-05T13:11:11.003Z,22.75
2018-10-05T13:13:04.132Z,22.59
2018-10-05T13:14:04.085Z,22.68
2018-10-05T13:15:57.058Z,22.63
2018-10-05T13:16:58.077Z,22.66
2018-10-05T13:18:50.145Z,22.66
2018-10-05T13:19:50.198Z,22.69
2018-10-05T13:21:43.236Z,22.63
2018-10-05T13:22:43.263Z,22.57
2018-10-05T13:24:36.299Z,22.57
2018-10-05T13:25:36.314Z,22.59
2018-10-05T13:27:29.312Z,22.55
2018-10-05T13:28:29.376Z,22.63
2018-10-05T13:30:22.368Z,22.70
2018-10-05T13:31:22.430Z,22.83
2018-10-05T13:33:15.443Z,22.84
2018-10-05T13:34:15.500Z,22.94
2018-10-05T13:36:08.501Z,23.06
2018-10-05T13:37:08.597Z,23.08
2018-10-05T13:39:01.557Z,23.00
2018-10-05T13:40:01.627Z,22.88
2018-10-05T13:41:54.731Z,22.94
2018-10-05T13:42:54.677Z,22.99
2018-10-05T13:44:47.674Z,23.03
2018-10-05T13:45:47.739Z,23.08
2018-10-05T13:47:40.739Z,23.02
2018-10-05T13:48:40.796Z,23.05
2018-10-05T13:50:33.788Z,23.31
2018-10-05T13:51:33.852Z,23.36
2018-10-05T13:53:26.852Z,23.63
2018-10-05T13:54:26.910Z,23.73
2018-10-05T13:56:19.912Z,24.20
2018-10-05T13:57:19.973Z,24.58
2018-10-05T13:59:12.968Z,25.59
2018-10-05T14:00:13.052Z,26.02
2018-10-05T14:02:06.592Z,26.83
2018-10-05T14:03:06.622Z,27.11
2018-10-05T14:04:59.616Z,27.27
2018-10-05T14:05:59.689Z,27.47
2018-10-05T14:07:52.689Z,27.42
2018-10-05T14:08:52.776Z,27.70
2018-10-05T14:10:45.749Z,27.80
2018-10-05T14:11:45.809Z,27.82
2018-10-05T14:13:38.817Z,27.37
2018-10-05T14:14:38.871Z,26.85
2018-10-05T14:16:31.875Z,26.38
2018-10-05T14:17:31.935Z,25.69
2018-10-05T14:19:24.934Z,25.14
2018-10-05T14:20:25.007Z,24.74
2018-10-05T14:22:18.005Z,24.36
2018-10-05T14:23:18.067Z,24.20
2018-10-05T14:25:11.068Z,23.91
2018-10-05T14:26:11.131Z,23.81
2018-10-05T14:28:04.150Z,23.69
2018-10-05T14:29:04.195Z,23.71
2018-10-05T14:30:57.192Z,23.59
2018-10-05T14:31:57.255Z,23.63
2018-10-05T14:33:50.307Z,23.55
2018-10-05T14:34:50.320Z,23.56
2018-10-05T14:36:43.336Z,23.43
2018-10-05T14:37:43.396Z,23.37
2018-10-05T14:39:36.399Z,23.44
2018-10-05T14:40:36.490Z,23.50
2018-10-05T14:42:29.468Z,23.39
2018-10-05T14:43:29.528Z,23.41
2018-10-05T14:45:22.530Z,23.43
2018-10-05T14:46:22.609Z,23.40
2018-10-05T14:48:15.597Z,23.41
2018-10-05T14:49:15.656Z,23.36
2018-10-05T14:51:08.650Z,23.36
2018-10-05T14:52:08.718Z,23.36
2018-10-05T14:54:01.752Z,23.24
2018-10-05T14:55:01.774Z,23.25
2018-10-05T14:56:54.818Z,23.13
2018-10-05T14:57:54.834Z,23.31
2018-10-05T14:59:47.824Z,23.10
2018-10-05T15:00:47.890Z,23.15
2018-10-05T15:02:40.890Z,23.09
2018-10-05T15:03:40.949Z,23.09
2018-10-05T15:05:33.947Z,23.03
2018-10-05T15:06:34.013Z,23.00
2018-10-05T15:08:27.035Z,23.05
2018-10-05T15:09:27.079Z,22.94
2018-10-05T15:11:20.077Z,22.98
2018-10-05T15:12:20.136Z,22.90
2018-10-05T15:14:13.138Z,22.85
2018-10-05T15:15:13.196Z,22.90
2018-10-05T15:17:06.222Z,22.84
2018-10-05T15:18:06.276Z,22.93
2018-10-05T15:19:59.293Z,22.83
2018-10-05T15:20:59.359Z,22.88
2018-10-05T15:22:52.359Z,22.75
2018-10-05T15:23:52.419Z,22.70
2018-10-05T15:25:45.414Z,22.69
2018-10-05T15:26:45.478Z,22.68
2018-10-05T15:28:38.477Z,22.72
2018-10-05T15:29:38.536Z,22.72
2018-10-05T15:31:31.532Z,22.66
2018-10-05T15:32:31.601Z,22.62
2018-10-05T15:34:24.602Z,22.57
2018-10-05T15:35:24.660Z,22.57
2018-10-05T15:37:17.660Z,22.60
2018-10-05T15:38:17.718Z,22.53
2018-10-05T15:40:10.713Z,22.43
2018-10-05T15:41:10.793Z,22.36
2018-10-05T15:43:03.778Z,22.36
2018-10-05T15:44:03.834Z,22.28
2018-10-05T15:45:56.830Z,22.15
2018-10-05T15:46:56.894Z,22.14
2018-10-05T15:48:49.910Z,22.10
2018-10-05T15:49:49.968Z,22.08
2018-10-05T15:51:42.964Z,22.02
2018-10-05T15:52:43.029Z,21.93
2018-10-05T15:54:36.030Z,21.98
2018-10-05T15:55:36.086Z,21.98
2018-10-05T15:57:29.089Z,21.88
2018-10-05T15:58:29.147Z,21.91
2018-10-05T16:00:22.137Z,21.91
2018-10-05T16:01:22.201Z,21.96
2018-10-05T16:03:15.201Z,21.93
2018-10-05T16:04:15.260Z,21.91
2018-10-05T16:06:08.248Z,21.73
2018-10-05T16:07:08.312Z,21.77
2018-10-05T16:09:01.310Z,21.66
2018-10-05T16:10:01.367Z,21.60
2018-10-05T16:11:54.418Z,21.48
2018-10-05T16:12:54.480Z,21.48
2018-10-05T16:14:47.424Z,21.30
2018-10-05T16:15:47.478Z,21.32
2018-10-05T16:17:40.497Z,21.14
2018-10-05T16:18:40.602Z,21.00
2018-10-05T16:20:33.560Z,20.90
2018-10-05T16:21:33.604Z,20.82
2018-10-05T16:23:26.602Z,20.66
2018-10-05T16:24:26.659Z,20.60
2018-10-05T16:26:19.653Z,20.37
2018-10-05T16:27:19.717Z,20.34
2018-10-05T16:29:12.717Z,20.24
2018-10-05T16:30:12.772Z,20.19
2018-10-05T16:32:05.760Z,20.02
2018-10-05T16:33:05.824Z,19.95
2018-10-05T16:34:58.825Z,19.77
2018-10-05T16:35:58.878Z,19.66
2018-10-05T16:37:51.869Z,19.59
2018-10-05T16:38:51.932Z,19.56
2018-10-05T16:40:44.927Z,19.67
2018-10-05T16:41:44.986Z,19.73
2018-10-05T16:43:38.016Z,19.66
2018-10-05T16:44:38.039Z,19.74
2018-10-05T16:46:31.031Z,19.74
2018-10-05T16:47:31.093Z,19.64
2018-10-05T16:49:24.116Z,19.48
2018-10-05T16:50:24.150Z,19.33
2018-10-05T16:52:17.148Z,19.12
2018-10-05T16:53:17.211Z,19.11
2018-10-05T16:55:10.209Z,18.81
2018-10-05T16:56:10.268Z,18.83
2018-10-05T16:58:03.258Z,18.68
2018-10-05T16:59:03.322Z,18.71
2018-10-05T17:00:56.319Z,18.68
2018-10-05T17:01:56.389Z,18.74
2018-10-05T17:03:49.411Z,18.59
2018-10-05T17:04:49.434Z,18.58
2018-10-05T17:06:42.434Z,18.44
2018-10-05T17:07:42.493Z,18.41
2018-10-05T17:09:35.492Z,18.20
2018-10-05T17:10:35.662Z,18.05
2018-10-05T17:12:28.547Z,18.11
2018-10-05T17:13:28.609Z,17.98
2018-10-05T17:15:21.608Z,17.87
2018-10-05T17:16:21.666Z,17.94
2018-10-05T17:18:15.163Z,17.98
2018-10-05T17:19:15.225Z,17.92
2018-10-05T17:21:08.224Z,17.74
2018-10-05T17:22:08.275Z,17.65
2018-10-05T17:24:01.272Z,17.63
2018-10-05T17:25:01.329Z,17.57
2018-10-05T17:26:54.317Z,17.57
2018-10-05T17:27:54.382Z,17.44
2018-10-05T17:29:47.382Z,17.46
2018-10-05T17:30:47.438Z,17.41
2018-10-05T17:32:40.428Z,17.29
2018-10-05T17:33:40.493Z,17.27
2018-10-05T17:35:33.490Z,17.19
2018-10-05T17:36:33.550Z,17.09
2018-10-05T17:38:26.538Z,17.06
2018-10-05T17:39:26.601Z,17.06
2018-10-05T17:41:19.604Z,17.09
2018-10-05T17:42:19.654Z,16.90
2018-10-05T17:44:12.653Z,17.01
2018-10-05T17:45:12.729Z,17.06
2018-10-05T17:47:05.741Z,17.09
2018-10-05T17:48:05.802Z,17.11
2018-10-05T17:49:58.804Z,17.09
2018-10-05T17:50:58.859Z,16.96
2018-10-05T17:52:51.858Z,16.97
2018-10-05T17:53:51.921Z,16.75
2018-10-05T17:55:45.008Z,16.72
2018-10-05T17:56:45.072Z,16.65
2018-10-05T17:58:37.981Z,16.58
2018-10-05T17:59:38.041Z,16.61
2018-10-05T18:01:31.040Z,16.68
2018-10-05T18:02:31.092Z,16.68
2018-10-05T18:04:24.095Z,16.53
2018-10-05T18:05:24.151Z,16.49
2018-10-05T18:07:17.149Z,16.38
2018-10-05T18:08:17.239Z,16.36
2018-10-05T18:10:10.211Z,16.28
2018-10-05T18:11:10.267Z,16.23
2018-10-05T18:13:03.281Z,16.31
2018-10-05T18:14:03.344Z,16.17
2018-10-05T18:15:56.340Z,16.15
2018-10-05T18:16:56.395Z,16.17
2018-10-05T18:18:50.891Z,16.16
2018-10-05T18:19:50.953Z,16.12
2018-10-05T18:21:43.950Z,16.01
2018-10-05T18:22:44.007Z,16.04
2018-10-05T18:24:37.005Z,15.94
2018-10-05T18:25:37.061Z,15.98
2018-10-05T18:27:30.047Z,16.04
2018-10-05T18:28:30.110Z,16.01
2018-10-05T18:30:23.105Z,15.92
2018-10-05T18:31:23.160Z,15.86
2018-10-05T18:33:16.152Z,15.83
2018-10-05T18:34:16.213Z,15.92
2018-10-05T18:36:09.213Z,15.77
2018-10-05T18:37:09.263Z,15.76
2018-10-05T18:39:02.253Z,15.82
2018-10-05T18:40:02.311Z,15.79
2018-10-05T18:41:55.308Z,15.80
2018-10-05T18:42:55.359Z,15.67
2018-10-05T18:44:48.356Z,15.70
2018-10-05T18:45:48.410Z,15.68